sensor_id;sensor_type;location;lat;lon;timestamp;temperature;humidity
20750;DHT22;10535;50.664;4.564;2022-07-29T00:00:38;19.20;99.90
20750;DHT22;10535;50.664;4.564;2022-07-29T00:03:04;19.30;99.90
20750;DHT22;10535;50.664;4.564;2022-07-29T00:05:30;19.30;99.90
20750;DHT22;10535;50.664;4.564;2022-07-29T00:07:55;19.20;99.90
20750;DHT22;10535;50.664;4.564;2022-07-29T00:10:21;19.10;99.90
20750;DHT22;10535;50.664;4.564;2022-07-29T00:12:47;19.00;99.90
20750;DHT22;10535;50.664;4.564;2022-07-29T00:15:13;19.10;99.90
20750;DHT22;10535;50.664;4.564;2022-07-29T00:17:38;18.90;99.90
20750;DHT22;10535;50.664;4.564;2022-07-29T00:20:04;18.80;99.90
20750;DHT22;10535;50.664;4.564;2022-07-29T00:22:30;18.80;99.90
20750;DHT22;10535;50.664;4.564;2022-07-29T00:24:56;18.80;99.90
20750;DHT22;10535;50.664;4.564;2022-07-29T00:27:21;18.90;99.90
20750;DHT22;10535;50.664;4.564;2022-07-29T00:29:47;18.80;99.90
20750;DHT22;10535;50.664;4.564;2022-07-29T00:32:13;18.80;99.90
20750;DHT22;10535;50.664;4.564;2022-07-29T00:34:39;18.70;99.90
20750;DHT22;10535;50.664;4.564;2022-07-29T00:37:24;18.80;99.90
20750;DHT22;10535;50.664;4.564;2022-07-29T00:39:50;18.70;99.90
20750;DHT22;10535;50.664;4.564;2022-07-29T00:42:16;18.50;99.90
20750;DHT22;10535;50.664;4.564;2022-07-29T00:44:42;18.70;99.90
20750;DHT22;10535;50.664;4.564;2022-07-29T00:47:10;18.70;99.90
20750;DHT22;10535;50.664;4.564;2022-07-29T00:49:35;18.50;99.90
20750;DHT22;10535;50.664;4.564;2022-07-29T00:52:05;18.60;99.90
20750;DHT22;10535;50.664;4.564;2022-07-29T00:54:32;18.50;99.90
20750;DHT22;10535;50.664;4.564;2022-07-29T00:56:58;18.40;99.90
20750;DHT22;10535;50.664;4.564;2022-07-29T00:59:27;18.10;99.90
20750;DHT22;10535;50.664;4.564;2022-07-29T01:01:54;18.10;99.90
20750;DHT22;10535;50.664;4.564;2022-07-29T01:04:20;18.10;99.90
20750;DHT22;10535;50.664;4.564;2022-07-29T01:06:47;18.10;99.90
20750;DHT22;10535;50.664;4.564;2022-07-29T01:09:14;18.10;99.90
20750;DHT22;10535;50.664;4.564;2022-07-29T01:11:41;18.00;99.90
20750;DHT22;10535;50.664;4.564;2022-07-29T01:14:08;18.10;99.90
20750;DHT22;10535;50.664;4.564;2022-07-29T01:17:39;18.20;99.90
20750;DHT22;10535;50.664;4.564;2022-07-29T01:20:25;18.00;99.90
20750;DHT22;10535;50.664;4.564;2022-07-29T01:22:42;17.90;99.90
20750;DHT22;10535;50.664;4.564;2022-07-29T01:28:08;17.60;99.90
20750;DHT22;10535;50.664;4.564;2022-07-29T01:30:36;17.50;99.90
20750;DHT22;10535;50.664;4.564;2022-07-29T01:33:09;17.50;99.90
20750;DHT22;10535;50.664;4.564;2022-07-29T01:35:39;17.60;99.90
20750;DHT22;10535;50.664;4.564;2022-07-29T01:38:22;17.60;99.90
20750;DHT22;10535;50.664;4.564;2022-07-29T01:40:53;17.60;99.90
20750;DHT22;10535;50.664;4.564;2022-07-29T01:43:23;17.50;99.90
20750;DHT22;10535;50.664;4.564;2022-07-29T01:45:57;17.40;99.90
20750;DHT22;10535;50.664;4.564;2022-07-29T01:48:40;17.30;99.90
20750;DHT22;10535;50.664;4.564;2022-07-29T01:51:18;17.20;99.90
20750;DHT22;10535;50.664;4.564;2022-07-29T01:53:52;17.20;99.90
20750;DHT22;10535;50.664;4.564;2022-07-29T01:56:20;17.30;99.90
20750;DHT22;10535;50.664;4.564;2022-07-29T01:58:47;17.30;99.90
20750;DHT22;10535;50.664;4.564;2022-07-29T02:01:14;17.20;99.90
20750;DHT22;10535;50.664;4.564;2022-07-29T02:03:43;17.10;99.90
20750;DHT22;10535;50.664;4.564;2022-07-29T02:06:11;17.20;99.90
20750;DHT22;10535;50.664;4.564;2022-07-29T02:08:38;17.10;99.90
20750;DHT22;10535;50.664;4.564;2022-07-29T02:11:05;17.10;99.90
20750;DHT22;10535;50.664;4.564;2022-07-29T02:13:34;17.00;99.90
20750;DHT22;10535;50.664;4.564;2022-07-29T02:16:02;17.00;99.90
20750;DHT22;10535;50.664;4.564;2022-07-29T02:18:30;16.90;99.90
20750;DHT22;10535;50.664;4.564;2022-07-29T02:20:58;16.80;99.90
20750;DHT22;10535;50.664;4.564;2022-07-29T02:23:28;16.90;99.90
20750;DHT22;10535;50.664;4.564;2022-07-29T02:25:56;16.70;99.90
20750;DHT22;10535;50.664;4.564;2022-07-29T02:28:26;16.70;99.90
20750;DHT22;10535;50.664;4.564;2022-07-29T02:30:54;16.70;99.90
20750;DHT22;10535;50.664;4.564;2022-07-29T02:33:21;16.70;99.90
20750;DHT22;10535;50.664;4.564;2022-07-29T02:35:49;16.80;99.90
20750;DHT22;10535;50.664;4.564;2022-07-29T02:38:16;16.70;99.90
20750;DHT22;10535;50.664;4.564;2022-07-29T02:41:04;16.70;99.90
20750;DHT22;10535;50.664;4.564;2022-07-29T02:43:31;16.80;99.90
20750;DHT22;10535;50.664;4.564;2022-07-29T02:45:59;16.60;99.90
20750;DHT22;10535;50.664;4.564;2022-07-29T02:48:36;16.60;99.90
20750;DHT22;10535;50.664;4.564;2022-07-29T02:51:11;16.60;99.90
20750;DHT22;10535;50.664;4.564;2022-07-29T02:53:38;16.60;99.90
20750;DHT22;10535;50.664;4.564;2022-07-29T02:56:13;16.70;99.90
20750;DHT22;10535;50.664;4.564;2022-07-29T02:58:51;16.70;99.90
20750;DHT22;10535;50.664;4.564;2022-07-29T03:01:23;16.70;99.90
20750;DHT22;10535;50.664;4.564;2022-07-29T03:03:50;16.60;99.90
20750;DHT22;10535;50.664;4.564;2022-07-29T03:06:19;16.60;99.90
20750;DHT22;10535;50.664;4.564;2022-07-29T03:08:46;16.50;99.90
20750;DHT22;10535;50.664;4.564;2022-07-29T03:11:12;16.60;99.90
20750;DHT22;10535;50.664;4.564;2022-07-29T03:13:39;16.50;99.90
20750;DHT22;10535;50.664;4.564;2022-07-29T03:16:05;16.40;99.90
20750;DHT22;10535;50.664;4.564;2022-07-29T03:18:33;16.40;99.90
20750;DHT22;10535;50.664;4.564;2022-07-29T03:20:59;16.30;99.90
20750;DHT22;10535;50.664;4.564;2022-07-29T03:23:24;16.20;99.90
20750;DHT22;10535;50.664;4.564;2022-07-29T03:25:53;16.10;99.90
20750;DHT22;10535;50.664;4.564;2022-07-29T03:28:19;15.90;99.90
20750;DHT22;10535;50.664;4.564;2022-07-29T03:30:46;15.80;99.90
20750;DHT22;10535;50.664;4.564;2022-07-29T03:33:11;15.90;99.90
20750;DHT22;10535;50.664;4.564;2022-07-29T03:35:37;15.80;99.90
20750;DHT22;10535;50.664;4.564;2022-07-29T03:38:03;15.60;99.90
20750;DHT22;10535;50.664;4.564;2022-07-29T03:40:38;15.60;99.90
20750;DHT22;10535;50.664;4.564;2022-07-29T03:43:07;15.70;99.90
20750;DHT22;10535;50.664;4.564;2022-07-29T03:45:34;15.70;99.90
20750;DHT22;10535;50.664;4.564;2022-07-29T03:48:07;15.70;99.90
20750;DHT22;10535;50.664;4.564;2022-07-29T03:50:34;15.60;99.90
20750;DHT22;10535;50.664;4.564;2022-07-29T03:53:01;15.70;99.90
20750;DHT22;10535;50.664;4.564;2022-07-29T03:55:30;15.60;99.90
20750;DHT22;10535;50.664;4.564;2022-07-29T03:57:57;15.60;99.90
20750;DHT22;10535;50.664;4.564;2022-07-29T04:00:24;15.70;99.90
20750;DHT22;10535;50.664;4.564;2022-07-29T04:02:50;15.80;99.90
20750;DHT22;10535;50.664;4.564;2022-07-29T04:05:17;15.80;99.90
20750;DHT22;10535;50.664;4.564;2022-07-29T04:07:49;15.80;99.90
20750;DHT22;10535;50.664;4.564;2022-07-29T04:10:17;15.80;99.90
20750;DHT22;10535;50.664;4.564;2022-07-29T04:12:43;15.70;99.90
20750;DHT22;10535;50.664;4.564;2022-07-29T04:15:09;15.70;99.90
20750;DHT22;10535;50.664;4.564;2022-07-29T04:17:35;15.80;99.90
20750;DHT22;10535;50.664;4.564;2022-07-29T04:20:00;15.70;99.90
20750;DHT22;10535;50.664;4.564;2022-07-29T04:22:26;15.70;99.90
20750;DHT22;10535;50.664;4.564;2022-07-29T04:24:51;15.60;99.90
20750;DHT22;10535;50.664;4.564;2022-07-29T04:27:17;15.60;99.90
20750;DHT22;10535;50.664;4.564;2022-07-29T04:29:43;15.50;99.90
20750;DHT22;10535;50.664;4.564;2022-07-29T04:32:08;15.50;99.90
20750;DHT22;10535;50.664;4.564;2022-07-29T04:34:34;15.50;99.90
20750;DHT22;10535;50.664;4.564;2022-07-29T04:36:59;15.40;99.90
20750;DHT22;10535;50.664;4.564;2022-07-29T04:39:25;15.60;99.90
20750;DHT22;10535;50.664;4.564;2022-07-29T04:41:51;15.60;99.90
20750;DHT22;10535;50.664;4.564;2022-07-29T04:44:17;15.50;99.90
20750;DHT22;10535;50.664;4.564;2022-07-29T04:46:43;15.50;99.90
20750;DHT22;10535;50.664;4.564;2022-07-29T04:49:08;15.60;99.90
20750;DHT22;10535;50.664;4.564;2022-07-29T04:51:34;15.60;99.90
20750;DHT22;10535;50.664;4.564;2022-07-29T04:54:00;16.00;99.90
20750;DHT22;10535;50.664;4.564;2022-07-29T04:56:26;16.10;99.90
20750;DHT22;10535;50.664;4.564;2022-07-29T04:58:52;16.50;99.90
20750;DHT22;10535;50.664;4.564;2022-07-29T05:01:18;17.00;99.90
20750;DHT22;10535;50.664;4.564;2022-07-29T05:03:44;17.50;99.90
20750;DHT22;10535;50.664;4.564;2022-07-29T05:06:10;17.80;99.90
20750;DHT22;10535;50.664;4.564;2022-07-29T05:08:36;18.20;99.90
20750;DHT22;10535;50.664;4.564;2022-07-29T05:11:02;18.50;99.90
20750;DHT22;10535;50.664;4.564;2022-07-29T05:13:27;18.70;99.90
20750;DHT22;10535;50.664;4.564;2022-07-29T05:15:53;18.90;99.90
20750;DHT22;10535;50.664;4.564;2022-07-29T05:18:19;19.00;99.90
20750;DHT22;10535;50.664;4.564;2022-07-29T05:20:44;19.30;99.90
20750;DHT22;10535;50.664;4.564;2022-07-29T05:23:10;19.40;99.90
20750;DHT22;10535;50.664;4.564;2022-07-29T05:25:38;19.50;99.90
20750;DHT22;10535;50.664;4.564;2022-07-29T05:28:04;19.30;99.90
20750;DHT22;10535;50.664;4.564;2022-07-29T05:30:29;19.30;99.90
20750;DHT22;10535;50.664;4.564;2022-07-29T05:32:55;19.50;99.90
20750;DHT22;10535;50.664;4.564;2022-07-29T05:35:21;19.40;99.90
20750;DHT22;10535;50.664;4.564;2022-07-29T05:37:46;18.90;99.90
20750;DHT22;10535;50.664;4.564;2022-07-29T05:40:12;19.10;99.90
20750;DHT22;10535;50.664;4.564;2022-07-29T05:42:38;18.90;99.90
20750;DHT22;10535;50.664;4.564;2022-07-29T05:45:03;18.40;99.90
20750;DHT22;10535;50.664;4.564;2022-07-29T05:47:30;18.50;99.90
20750;DHT22;10535;50.664;4.564;2022-07-29T05:49:56;18.20;99.90
20750;DHT22;10535;50.664;4.564;2022-07-29T05:52:22;17.90;99.90
20750;DHT22;10535;50.664;4.564;2022-07-29T05:54:48;18.00;99.90
20750;DHT22;10535;50.664;4.564;2022-07-29T05:57:18;18.10;99.90
20750;DHT22;10535;50.664;4.564;2022-07-29T05:59:45;18.00;99.90
20750;DHT22;10535;50.664;4.564;2022-07-29T06:02:10;18.00;99.90
20750;DHT22;10535;50.664;4.564;2022-07-29T06:04:36;18.20;99.90
20750;DHT22;10535;50.664;4.564;2022-07-29T06:07:02;18.00;99.90
20750;DHT22;10535;50.664;4.564;2022-07-29T06:09:29;18.30;99.90
20750;DHT22;10535;50.664;4.564;2022-07-29T06:11:54;18.20;99.90
20750;DHT22;10535;50.664;4.564;2022-07-29T06:14:20;18.30;99.90
20750;DHT22;10535;50.664;4.564;2022-07-29T06:16:46;18.40;99.90
20750;DHT22;10535;50.664;4.564;2022-07-29T06:19:11;18.20;99.90
20750;DHT22;10535;50.664;4.564;2022-07-29T06:21:42;18.30;99.90
20750;DHT22;10535;50.664;4.564;2022-07-29T06:24:07;18.30;99.90
20750;DHT22;10535;50.664;4.564;2022-07-29T06:26:33;18.50;99.90
20750;DHT22;10535;50.664;4.564;2022-07-29T06:28:59;18.70;99.90
20750;DHT22;10535;50.664;4.564;2022-07-29T06:31:25;18.70;99.90
20750;DHT22;10535;50.664;4.564;2022-07-29T06:33:50;18.60;99.90
20750;DHT22;10535;50.664;4.564;2022-07-29T06:36:16;18.80;99.90
20750;DHT22;10535;50.664;4.564;2022-07-29T06:38:43;18.80;99.90
20750;DHT22;10535;50.664;4.564;2022-07-29T06:41:09;19.00;99.90
20750;DHT22;10535;50.664;4.564;2022-07-29T06:43:39;19.40;99.90
20750;DHT22;10535;50.664;4.564;2022-07-29T06:46:08;19.50;99.90
20750;DHT22;10535;50.664;4.564;2022-07-29T06:48:34;19.90;99.90
20750;DHT22;10535;50.664;4.564;2022-07-29T06:51:02;20.10;99.90
20750;DHT22;10535;50.664;4.564;2022-07-29T06:53:29;20.20;99.90
20750;DHT22;10535;50.664;4.564;2022-07-29T06:55:55;20.70;99.90
20750;DHT22;10535;50.664;4.564;2022-07-29T06:58:20;21.10;99.90
20750;DHT22;10535;50.664;4.564;2022-07-29T07:00:47;21.30;99.90
20750;DHT22;10535;50.664;4.564;2022-07-29T07:03:13;21.90;99.90
20750;DHT22;10535;50.664;4.564;2022-07-29T07:05:39;21.80;99.90
20750;DHT22;10535;50.664;4.564;2022-07-29T07:08:05;22.10;99.90
20750;DHT22;10535;50.664;4.564;2022-07-29T07:10:31;22.10;99.90
20750;DHT22;10535;50.664;4.564;2022-07-29T07:12:57;21.80;99.90
20750;DHT22;10535;50.664;4.564;2022-07-29T07:15:23;21.60;99.90
20750;DHT22;10535;50.664;4.564;2022-07-29T07:17:49;22.20;99.90
20750;DHT22;10535;50.664;4.564;2022-07-29T07:20:15;22.60;99.90
20750;DHT22;10535;50.664;4.564;2022-07-29T07:22:41;22.50;99.90
20750;DHT22;10535;50.664;4.564;2022-07-29T07:25:06;22.30;99.90
20750;DHT22;10535;50.664;4.564;2022-07-29T07:27:32;22.00;99.90
20750;DHT22;10535;50.664;4.564;2022-07-29T07:29:58;22.30;99.90
20750;DHT22;10535;50.664;4.564;2022-07-29T07:32:23;22.20;99.90
20750;DHT22;10535;50.664;4.564;2022-07-29T07:34:49;22.40;99.90
20750;DHT22;10535;50.664;4.564;2022-07-29T07:37:15;22.40;99.90
20750;DHT22;10535;50.664;4.564;2022-07-29T07:39:41;22.70;99.90
20750;DHT22;10535;50.664;4.564;2022-07-29T07:42:07;22.70;99.90
20750;DHT22;10535;50.664;4.564;2022-07-29T07:44:32;21.70;99.90
20750;DHT22;10535;50.664;4.564;2022-07-29T07:46:58;21.70;99.90
20750;DHT22;10535;50.664;4.564;2022-07-29T07:49:24;21.80;99.90
20750;DHT22;10535;50.664;4.564;2022-07-29T07:51:49;21.90;99.90
20750;DHT22;10535;50.664;4.564;2022-07-29T07:54:15;22.20;99.90
20750;DHT22;10535;50.664;4.564;2022-07-29T07:56:40;21.90;99.90
20750;DHT22;10535;50.664;4.564;2022-07-29T07:59:06;21.80;99.90
20750;DHT22;10535;50.664;4.564;2022-07-29T08:01:32;21.90;99.90
20750;DHT22;10535;50.664;4.564;2022-07-29T08:03:57;22.10;99.90
20750;DHT22;10535;50.664;4.564;2022-07-29T08:06:23;22.00;99.90
20750;DHT22;10535;50.664;4.564;2022-07-29T08:08:50;22.10;99.90
20750;DHT22;10535;50.664;4.564;2022-07-29T08:11:16;21.80;99.90
20750;DHT22;10535;50.664;4.564;2022-07-29T08:13:42;21.90;99.90
20750;DHT22;10535;50.664;4.564;2022-07-29T08:16:08;22.20;99.90
20750;DHT22;10535;50.664;4.564;2022-07-29T08:18:39;22.40;99.90
20750;DHT22;10535;50.664;4.564;2022-07-29T08:21:06;22.40;99.90
20750;DHT22;10535;50.664;4.564;2022-07-29T08:23:32;22.20;99.90
20750;DHT22;10535;50.664;4.564;2022-07-29T08:26:08;22.20;99.90
20750;DHT22;10535;50.664;4.564;2022-07-29T08:28:38;22.50;99.90
20750;DHT22;10535;50.664;4.564;2022-07-29T08:31:05;22.80;99.90
20750;DHT22;10535;50.664;4.564;2022-07-29T08:33:31;23.10;99.90
20750;DHT22;10535;50.664;4.564;2022-07-29T08:35:57;22.90;99.90
20750;DHT22;10535;50.664;4.564;2022-07-29T08:38:22;22.80;99.90
20750;DHT22;10535;50.664;4.564;2022-07-29T08:40:48;22.40;99.90
20750;DHT22;10535;50.664;4.564;2022-07-29T08:43:14;22.40;99.90
20750;DHT22;10535;50.664;4.564;2022-07-29T08:45:46;22.50;99.90
20750;DHT22;10535;50.664;4.564;2022-07-29T08:48:13;22.70;99.90
20750;DHT22;10535;50.664;4.564;2022-07-29T08:50:40;22.60;99.90
20750;DHT22;10535;50.664;4.564;2022-07-29T08:53:09;22.90;99.90
20750;DHT22;10535;50.664;4.564;2022-07-29T08:55:38;22.90;99.90
20750;DHT22;10535;50.664;4.564;2022-07-29T08:58:04;22.80;99.90
20750;DHT22;10535;50.664;4.564;2022-07-29T09:00:30;22.70;99.90
20750;DHT22;10535;50.664;4.564;2022-07-29T09:02:57;22.90;99.90
20750;DHT22;10535;50.664;4.564;2022-07-29T09:05:25;23.10;99.90
20750;DHT22;10535;50.664;4.564;2022-07-29T09:07:52;23.30;99.90
20750;DHT22;10535;50.664;4.564;2022-07-29T09:10:18;23.20;99.90
20750;DHT22;10535;50.664;4.564;2022-07-29T09:12:43;23.30;99.90
20750;DHT22;10535;50.664;4.564;2022-07-29T09:15:09;23.50;99.90
20750;DHT22;10535;50.664;4.564;2022-07-29T09:17:46;23.70;99.90
20750;DHT22;10535;50.664;4.564;2022-07-29T09:20:18;23.80;99.90
20750;DHT22;10535;50.664;4.564;2022-07-29T09:22:45;23.70;99.90
20750;DHT22;10535;50.664;4.564;2022-07-29T09:33:17;23.60;99.90
20750;DHT22;10535;50.664;4.564;2022-07-29T09:35:43;23.70;99.90
20750;DHT22;10535;50.664;4.564;2022-07-29T09:38:13;23.80;99.90
20750;DHT22;10535;50.664;4.564;2022-07-29T09:40:39;23.70;99.90
20750;DHT22;10535;50.664;4.564;2022-07-29T09:43:13;23.70;99.90
20750;DHT22;10535;50.664;4.564;2022-07-29T09:45:39;23.70;99.90
20750;DHT22;10535;50.664;4.564;2022-07-29T09:48:20;23.70;99.90
20750;DHT22;10535;50.664;4.564;2022-07-29T09:50:46;23.80;99.90
20750;DHT22;10535;50.664;4.564;2022-07-29T09:56:02;24.10;99.90
20750;DHT22;10535;50.664;4.564;2022-07-29T09:58:28;24.00;99.90
20750;DHT22;10535;50.664;4.564;2022-07-29T10:00:55;24.10;99.90
20750;DHT22;10535;50.664;4.564;2022-07-29T10:03:22;24.20;99.90
20750;DHT22;10535;50.664;4.564;2022-07-29T10:06:23;24.10;99.90
20750;DHT22;10535;50.664;4.564;2022-07-29T10:08:49;24.40;99.90
20750;DHT22;10535;50.664;4.564;2022-07-29T10:11:16;24.50;99.90
20750;DHT22;10535;50.664;4.564;2022-07-29T10:13:44;24.50;99.90
20750;DHT22;10535;50.664;4.564;2022-07-29T10:16:11;24.60;99.90
20750;DHT22;10535;50.664;4.564;2022-07-29T10:18:38;24.60;99.90
20750;DHT22;10535;50.664;4.564;2022-07-29T10:21:04;24.60;99.90
20750;DHT22;10535;50.664;4.564;2022-07-29T10:23:30;24.70;99.90
20750;DHT22;10535;50.664;4.564;2022-07-29T10:25:57;24.70;99.90
20750;DHT22;10535;50.664;4.564;2022-07-29T10:28:23;24.70;99.90
20750;DHT22;10535;50.664;4.564;2022-07-29T10:30:57;24.70;99.90
20750;DHT22;10535;50.664;4.564;2022-07-29T10:41:43;24.50;99.90
20750;DHT22;10535;50.664;4.564;2022-07-29T10:44:22;24.60;99.90
20750;DHT22;10535;50.664;4.564;2022-07-29T10:46:49;24.80;99.90
20750;DHT22;10535;50.664;4.564;2022-07-29T10:49:17;24.80;99.90
20750;DHT22;10535;50.664;4.564;2022-07-29T10:52:01;24.80;99.90
20750;DHT22;10535;50.664;4.564;2022-07-29T11:07:39;25.20;99.90
20750;DHT22;10535;50.664;4.564;2022-07-29T11:10:25;25.20;99.90
20750;DHT22;10535;50.664;4.564;2022-07-29T11:12:51;25.10;99.90
20750;DHT22;10535;50.664;4.564;2022-07-29T11:15:20;25.10;99.90
20750;DHT22;10535;50.664;4.564;2022-07-29T11:23:01;25.30;99.90
20750;DHT22;10535;50.664;4.564;2022-07-29T11:25:27;25.00;99.90
20750;DHT22;10535;50.664;4.564;2022-07-29T11:27:54;25.40;99.90
20750;DHT22;10535;50.664;4.564;2022-07-29T11:30:51;25.70;99.90
20750;DHT22;10535;50.664;4.564;2022-07-29T11:33:46;26.00;99.90
20750;DHT22;10535;50.664;4.564;2022-07-29T11:36:15;26.40;99.90
20750;DHT22;10535;50.664;4.564;2022-07-29T11:38:41;26.60;99.90
20750;DHT22;10535;50.664;4.564;2022-07-29T11:41:26;26.40;99.90
20750;DHT22;10535;50.664;4.564;2022-07-29T11:43:56;26.60;99.90
20750;DHT22;10535;50.664;4.564;2022-07-29T11:46:46;26.40;99.90
20750;DHT22;10535;50.664;4.564;2022-07-29T11:49:22;26.40;99.90
20750;DHT22;10535;50.664;4.564;2022-07-29T11:51:53;26.50;99.90
20750;DHT22;10535;50.664;4.564;2022-07-29T11:54:31;26.10;99.90
20750;DHT22;10535;50.664;4.564;2022-07-29T11:57:00;26.00;99.90
20750;DHT22;10535;50.664;4.564;2022-07-29T11:59:30;26.10;99.90
20750;DHT22;10535;50.664;4.564;2022-07-29T12:01:59;26.20;99.90
20750;DHT22;10535;50.664;4.564;2022-07-29T12:04:25;26.10;99.90
20750;DHT22;10535;50.664;4.564;2022-07-29T12:06:54;25.90;99.90
20750;DHT22;10535;50.664;4.564;2022-07-29T12:09:20;26.20;99.90
20750;DHT22;10535;50.664;4.564;2022-07-29T12:11:47;26.90;99.90
20750;DHT22;10535;50.664;4.564;2022-07-29T12:14:30;27.80;99.90
20750;DHT22;10535;50.664;4.564;2022-07-29T12:16:57;28.50;99.90
20750;DHT22;10535;50.664;4.564;2022-07-29T12:19:23;28.40;99.90
20750;DHT22;10535;50.664;4.564;2022-07-29T12:21:54;27.80;99.90
20750;DHT22;10535;50.664;4.564;2022-07-29T12:24:20;27.40;99.90
20750;DHT22;10535;50.664;4.564;2022-07-29T12:26:55;27.00;99.90
20750;DHT22;10535;50.664;4.564;2022-07-29T12:29:21;27.00;99.90
20750;DHT22;10535;50.664;4.564;2022-07-29T12:31:51;27.20;99.90
20750;DHT22;10535;50.664;4.564;2022-07-29T12:34:20;27.60;99.90
20750;DHT22;10535;50.664;4.564;2022-07-29T12:36:48;27.50;99.90
20750;DHT22;10535;50.664;4.564;2022-07-29T12:39:16;27.30;99.90
20750;DHT22;10535;50.664;4.564;2022-07-29T12:41:42;27.20;99.90
20750;DHT22;10535;50.664;4.564;2022-07-29T12:44:09;26.90;99.90
20750;DHT22;10535;50.664;4.564;2022-07-29T12:46:35;26.60;99.90
20750;DHT22;10535;50.664;4.564;2022-07-29T12:49:01;26.50;99.90
20750;DHT22;10535;50.664;4.564;2022-07-29T12:51:34;26.50;99.90
20750;DHT22;10535;50.664;4.564;2022-07-29T12:54:10;26.50;99.90
20750;DHT22;10535;50.664;4.564;2022-07-29T12:56:40;25.90;99.90
20750;DHT22;10535;50.664;4.564;2022-07-29T13:01:38;26.30;99.90
20750;DHT22;10535;50.664;4.564;2022-07-29T13:04:04;26.30;99.90
20750;DHT22;10535;50.664;4.564;2022-07-29T13:06:44;26.20;99.90
20750;DHT22;10535;50.664;4.564;2022-07-29T13:09:20;26.20;99.90
20750;DHT22;10535;50.664;4.564;2022-07-29T13:11:52;25.90;99.90
20750;DHT22;10535;50.664;4.564;2022-07-29T13:14:39;26.30;99.90
20750;DHT22;10535;50.664;4.564;2022-07-29T13:19:40;26.40;99.90
20750;DHT22;10535;50.664;4.564;2022-07-29T13:22:10;26.50;99.90
20750;DHT22;10535;50.664;4.564;2022-07-29T13:24:53;26.70;99.90
20750;DHT22;10535;50.664;4.564;2022-07-29T13:27:24;26.90;99.90
20750;DHT22;10535;50.664;4.564;2022-07-29T13:29:50;27.00;99.90
20750;DHT22;10535;50.664;4.564;2022-07-29T13:32:21;27.30;99.90
20750;DHT22;10535;50.664;4.564;2022-07-29T13:34:47;27.30;99.90
20750;DHT22;10535;50.664;4.564;2022-07-29T13:37:12;27.30;99.90
20750;DHT22;10535;50.664;4.564;2022-07-29T13:39:38;27.10;99.90
20750;DHT22;10535;50.664;4.564;2022-07-29T13:42:06;26.80;99.90
20750;DHT22;10535;50.664;4.564;2022-07-29T13:44:32;26.80;99.90
20750;DHT22;10535;50.664;4.564;2022-07-29T13:46:57;27.00;99.90
20750;DHT22;10535;50.664;4.564;2022-07-29T13:49:24;26.90;99.90
20750;DHT22;10535;50.664;4.564;2022-07-29T13:51:50;27.10;99.90
20750;DHT22;10535;50.664;4.564;2022-07-29T13:54:16;27.90;99.90
20750;DHT22;10535;50.664;4.564;2022-07-29T13:56:41;27.90;99.90
20750;DHT22;10535;50.664;4.564;2022-07-29T13:59:07;28.00;99.90
20750;DHT22;10535;50.664;4.564;2022-07-29T14:01:34;28.40;99.90
20750;DHT22;10535;50.664;4.564;2022-07-29T14:04:00;28.70;99.90
20750;DHT22;10535;50.664;4.564;2022-07-29T14:06:26;28.40;99.90
20750;DHT22;10535;50.664;4.564;2022-07-29T14:08:52;28.20;99.90
20750;DHT22;10535;50.664;4.564;2022-07-29T14:11:18;28.20;99.90
20750;DHT22;10535;50.664;4.564;2022-07-29T14:13:43;28.00;99.90
20750;DHT22;10535;50.664;4.564;2022-07-29T14:16:09;27.90;99.90
20750;DHT22;10535;50.664;4.564;2022-07-29T14:18:34;27.80;99.90
20750;DHT22;10535;50.664;4.564;2022-07-29T14:21:00;27.70;99.90
20750;DHT22;10535;50.664;4.564;2022-07-29T14:23:26;27.50;99.90
20750;DHT22;10535;50.664;4.564;2022-07-29T14:25:51;27.40;99.90
20750;DHT22;10535;50.664;4.564;2022-07-29T14:28:17;27.30;99.90
20750;DHT22;10535;50.664;4.564;2022-07-29T14:30:43;27.00;99.90
20750;DHT22;10535;50.664;4.564;2022-07-29T14:33:09;26.80;99.90
20750;DHT22;10535;50.664;4.564;2022-07-29T14:35:34;26.70;99.90
20750;DHT22;10535;50.664;4.564;2022-07-29T14:38:00;26.50;99.90
20750;DHT22;10535;50.664;4.564;2022-07-29T14:40:25;26.80;99.90
20750;DHT22;10535;50.664;4.564;2022-07-29T14:42:51;27.10;99.90
20750;DHT22;10535;50.664;4.564;2022-07-29T14:45:17;27.40;99.90
20750;DHT22;10535;50.664;4.564;2022-07-29T14:47:43;27.70;99.90
20750;DHT22;10535;50.664;4.564;2022-07-29T14:50:09;27.40;99.90
20750;DHT22;10535;50.664;4.564;2022-07-29T14:52:35;27.20;99.90
20750;DHT22;10535;50.664;4.564;2022-07-29T14:55:01;26.90;99.90
20750;DHT22;10535;50.664;4.564;2022-07-29T14:57:27;27.00;99.90
20750;DHT22;10535;50.664;4.564;2022-07-29T14:59:52;27.00;99.90
20750;DHT22;10535;50.664;4.564;2022-07-29T15:02:18;27.00;99.90
20750;DHT22;10535;50.664;4.564;2022-07-29T15:04:44;26.90;99.90
20750;DHT22;10535;50.664;4.564;2022-07-29T15:07:11;26.90;99.90
20750;DHT22;10535;50.664;4.564;2022-07-29T15:09:37;26.80;99.90
20750;DHT22;10535;50.664;4.564;2022-07-29T15:12:02;26.70;99.90
20750;DHT22;10535;50.664;4.564;2022-07-29T15:14:29;26.70;99.90
20750;DHT22;10535;50.664;4.564;2022-07-29T15:16:55;26.70;99.90
20750;DHT22;10535;50.664;4.564;2022-07-29T15:19:21;26.80;99.90
20750;DHT22;10535;50.664;4.564;2022-07-29T15:21:47;26.80;99.90
20750;DHT22;10535;50.664;4.564;2022-07-29T15:24:12;26.70;99.90
20750;DHT22;10535;50.664;4.564;2022-07-29T15:26:38;26.90;99.90
20750;DHT22;10535;50.664;4.564;2022-07-29T15:29:04;26.80;99.90
20750;DHT22;10535;50.664;4.564;2022-07-29T15:31:29;26.90;99.90
20750;DHT22;10535;50.664;4.564;2022-07-29T15:33:55;26.70;99.90
20750;DHT22;10535;50.664;4.564;2022-07-29T15:36:22;26.70;99.90
20750;DHT22;10535;50.664;4.564;2022-07-29T15:38:48;26.80;99.90
20750;DHT22;10535;50.664;4.564;2022-07-29T15:41:15;27.00;99.90
20750;DHT22;10535;50.664;4.564;2022-07-29T15:43:44;26.90;99.90
20750;DHT22;10535;50.664;4.564;2022-07-29T15:46:17;26.50;99.90
20750;DHT22;10535;50.664;4.564;2022-07-29T15:49:03;26.60;99.90
20750;DHT22;10535;50.664;4.564;2022-07-29T15:51:29;27.00;99.90
20750;DHT22;10535;50.664;4.564;2022-07-29T15:53:54;26.90;99.90
20750;DHT22;10535;50.664;4.564;2022-07-29T15:56:21;27.00;99.90
20750;DHT22;10535;50.664;4.564;2022-07-29T15:58:47;26.90;99.90
20750;DHT22;10535;50.664;4.564;2022-07-29T16:01:13;26.80;99.90
20750;DHT22;10535;50.664;4.564;2022-07-29T16:03:39;26.70;99.90
20750;DHT22;10535;50.664;4.564;2022-07-29T16:06:05;26.90;99.90
20750;DHT22;10535;50.664;4.564;2022-07-29T16:08:31;27.10;99.90
20750;DHT22;10535;50.664;4.564;2022-07-29T16:10:56;26.90;99.90
20750;DHT22;10535;50.664;4.564;2022-07-29T16:13:23;26.90;99.40
20750;DHT22;10535;50.664;4.564;2022-07-29T16:15:49;26.90;99.10
20750;DHT22;10535;50.664;4.564;2022-07-29T16:18:15;27.00;99.90
20750;DHT22;10535;50.664;4.564;2022-07-29T16:20:41;26.90;99.90